Time;durP1;ratioP1;P1;durP2;ratioP2;P2;SDS_P1;SDS_P2;PMS_P1;PMS_P2;Temp;Humidity;BMP_temperature;BMP_pressure;BME280_temperature;BME280_humidity;BME280_pressure;Samples;Min_cycle;Max_cycle;Signal;HPM_P1;HPM_P2
2022/07/25 00:00:12;;;;;;;9.55;7.15;;;21.90;79.90;;;;;;5082412;28;20059;-81
2022/07/25 00:02:38;;;;;;;9.20;7.78;;;21.90;80.40;;;;;;5065909;28;20021;-80
2022/07/25 00:05:05;;;;;;;11.38;7.57;;;21.90;80.90;;;;;;5090332;28;20536;-79
2022/07/25 00:07:30;;;;;;;10.45;8.05;;;21.80;81.40;;;;;;5067555;28;20024;-81
2022/07/25 00:09:56;;;;;;;11.93;7.72;;;21.80;81.90;;;;;;5086003;28;20060;-80
2022/07/25 00:12:22;;;;;;;16.17;8.25;;;21.80;82.30;;;;;;5078073;28;20105;-79
2022/07/25 00:14:48;;;;;;;11.13;8.30;;;21.70;82.60;;;;;;5073923;28;20114;-80
2022/07/25 00:17:14;;;;;;;13.82;7.78;;;21.70;82.90;;;;;;5090563;28;20481;-81
2022/07/25 00:19:40;;;;;;;16.40;9.07;;;21.70;83.30;;;;;;5083787;28;20441;-81
2022/07/25 00:22:07;;;;;;;11.20;8.75;;;21.60;83.60;;;;;;5077182;28;20044;-81
2022/07/25 00:24:33;;;;;;;11.98;8.10;;;21.60;83.80;;;;;;5085605;28;20090;-82
2022/07/25 00:26:59;;;;;;;18.23;9.45;;;21.60;84.20;;;;;;5068470;28;20093;-81
2022/07/25 00:29:25;;;;;;;15.00;8.57;;;21.60;84.30;;;;;;5077985;28;20504;-81
2022/07/25 00:31:51;;;;;;;10.27;8.25;;;21.50;84.50;;;;;;5091849;28;20020;-81
2022/07/25 00:34:17;;;;;;;11.25;8.02;;;21.50;85.30;;;;;;5092117;28;20385;-81
2022/07/25 00:36:43;;;;;;;14.07;9.52;;;21.40;85.10;;;;;;5083522;28;20090;-79
2022/07/25 00:39:08;;;;;;;16.48;9.13;;;21.40;85.30;;;;;;5090657;28;20024;-79
2022/07/25 00:41:35;;;;;;;13.10;9.48;;;21.40;85.50;;;;;;5085609;28;20055;-80
2022/07/25 00:44:01;;;;;;;14.43;10.02;;;21.40;85.70;;;;;;5075476;28;20025;-80
2022/07/25 00:46:26;;;;;;;12.55;8.75;;;21.40;85.90;;;;;;5073540;28;20150;-80
2022/07/25 00:48:52;;;;;;;16.67;9.15;;;21.40;86.20;;;;;;5081313;28;20024;-81
2022/07/25 00:51:18;;;;;;;12.93;8.98;;;21.30;86.30;;;;;;5091598;28;20024;-81
2022/07/25 00:53:44;;;;;;;11.85;9.00;;;21.30;86.40;;;;;;5084008;28;20029;-78
2022/07/25 00:56:10;;;;;;;11.43;8.88;;;21.30;86.50;;;;;;5081996;28;20106;-80
2022/07/25 00:58:36;;;;;;;18.80;9.55;;;21.30;86.60;;;;;;5082787;28;20105;-81
2022/07/25 01:01:03;;;;;;;11.05;8.63;;;21.30;86.70;;;;;;5090144;28;20024;-79
2022/07/25 01:03:29;;;;;;;16.08;8.68;;;21.30;86.80;;;;;;5088591;28;20048;-80
2022/07/25 01:05:55;;;;;;;13.85;9.48;;;21.30;87.00;;;;;;5091482;28;20032;-79
2022/07/25 01:08:21;;;;;;;13.30;8.98;;;21.30;87.10;;;;;;5092101;28;20016;-78
2022/07/25 01:10:48;;;;;;;10.85;9.73;;;21.20;87.10;;;;;;5084257;28;20020;-81
2022/07/25 01:13:15;;;;;;;14.60;8.47;;;21.20;87.20;;;;;;5074706;28;20509;-80
2022/07/25 01:15:41;;;;;;;;;;;21.20;87.30;;;;;;5074237;28;20074;-81
2022/07/25 01:18:07;;;;;;;13.43;9.33;;;21.20;86.50;;;;;;5085874;28;20433;-82
2022/07/25 01:20:33;;;;;;;18.10;8.65;;;21.10;87.40;;;;;;5091503;28;20352;-81
2022/07/25 01:23:00;;;;;;;10.85;8.13;;;21.10;87.70;;;;;;5080976;28;20100;-81
2022/07/25 01:25:26;;;;;;;13.88;9.02;;;21.10;87.90;;;;;;5090918;28;20038;-81
2022/07/25 01:27:53;;;;;;;9.73;7.88;;;21.10;88.00;;;;;;5091482;28;20016;-81
2022/07/25 01:30:20;;;;;;;13.18;9.20;;;21.10;88.10;;;;;;5091244;28;20024;-81
2022/07/25 01:32:46;;;;;;;10.40;8.75;;;21.00;88.10;;;;;;5091353;28;20062;-82
2022/07/25 01:35:13;;;;;;;10.52;8.23;;;21.00;88.20;;;;;;5091111;28;20027;-80
2022/07/25 01:37:40;;;;;;;10.50;8.57;;;21.00;88.30;;;;;;5090744;28;20402;-81
2022/07/25 01:40:07;;;;;;;9.88;8.20;;;21.10;88.40;;;;;;5090730;28;20020;-81
2022/07/25 01:42:33;;;;;;;9.15;7.93;;;21.00;88.30;;;;;;5055633;28;20427;-80
2022/07/25 01:45:00;;;;;;;10.82;7.80;;;21.00;88.40;;;;;;5093672;28;20128;-81
2022/07/25 01:47:26;;;;;;;7.43;6.65;;;21.00;88.60;;;;;;5088233;28;20024;-82
2022/07/25 01:49:51;;;;;;;10.25;7.55;;;21.00;88.50;;;;;;5087220;28;20444;-81
2022/07/25 01:52:17;;;;;;;13.82;8.52;;;21.00;88.50;;;;;;5076703;28;20048;-82
2022/07/25 01:54:43;;;;;;;14.20;8.85;;;21.10;88.60;;;;;;5088470;28;20020;-82
2022/07/25 01:57:09;;;;;;;10.23;8.57;;;21.10;88.60;;;;;;5088072;28;20495;-81
2022/07/25 01:59:39;;;;;;;9.15;7.57;;;21.10;88.60;;;;;;5085691;28;20161;-81
2022/07/25 02:02:08;;;;;;;10.38;8.13;;;21.10;88.80;;;;;;5068086;28;20429;-82
2022/07/25 02:04:34;;;;;;;11.45;8.27;;;21.10;88.60;;;;;;5088080;28;20036;-82
2022/07/25 02:07:00;;;;;;;9.15;7.20;;;21.10;88.60;;;;;;5094595;28;20039;-82
2022/07/25 02:09:26;;;;;;;11.80;7.70;;;21.20;88.80;;;;;;5094601;28;20020;-82
2022/07/25 02:11:52;;;;;;;10.32;8.18;;;21.20;88.60;;;;;;5094581;28;20031;-82
2022/07/25 02:14:18;;;;;;;12.63;8.43;;;21.10;88.50;;;;;;5094807;28;20047;-83
2022/07/25 02:16:44;;;;;;;11.43;7.97;;;21.20;88.60;;;;;;5094653;28;20039;-82
2022/07/25 02:19:10;;;;;;;16.63;8.77;;;21.20;88.50;;;;;;5094802;28;20019;-81
2022/07/25 02:21:35;;;;;;;14.52;7.82;;;21.20;88.40;;;;;;5094646;28;20043;-83
2022/07/25 02:24:02;;;;;;;11.25;8.30;;;21.20;88.30;;;;;;5093349;28;20061;-83
2022/07/25 02:26:28;;;;;;;13.13;7.75;;;21.30;88.30;;;;;;5093382;28;20031;-84
2022/07/25 02:28:54;;;;;;;8.80;7.45;;;21.30;88.10;;;;;;5094166;28;20023;-83
2022/07/25 02:31:20;;;;;;;10.98;7.88;;;21.40;88.10;;;;;;5085537;28;20021;-82
2022/07/25 02:33:45;;;;;;;10.50;7.15;;;21.40;87.70;;;;;;5093947;28;20024;-81
2022/07/25 02:36:12;;;;;;;9.85;7.50;;;21.50;87.60;;;;;;5087754;28;20095;-84
2022/07/25 02:38:38;;;;;;;8.23;6.97;;;21.50;87.50;;;;;;5103011;28;20012;-83
2022/07/25 02:41:04;;;;;;;12.02;8.27;;;21.50;87.40;;;;;;5105672;28;20028;-82
2022/07/25 02:43:30;;;;;;;11.15;7.45;;;21.60;87.40;;;;;;5089224;28;20023;-82
2022/07/25 02:45:56;;;;;;;15.60;8.90;;;21.70;87.30;;;;;;5094440;28;20031;-82
2022/07/25 02:48:22;;;;;;;11.57;8.68;;;21.70;87.00;;;;;;5094698;28;20020;-81
2022/07/25 02:50:48;;;;;;;9.60;7.72;;;21.80;86.90;;;;;;5094085;28;20069;-82
2022/07/25 02:53:14;;;;;;;11.15;7.90;;;21.80;86.70;;;;;;5088029;28;20100;-82
2022/07/25 02:55:39;;;;;;;10.73;7.65;;;21.90;86.60;;;;;;5093781;28;20028;-83
2022/07/25 02:58:05;;;;;;;9.30;7.88;;;22.00;86.40;;;;;;5079963;28;20028;-82
2022/07/25 03:00:31;;;;;;;9.43;7.35;;;22.00;85.90;;;;;;5089645;28;20024;-82
2022/07/25 03:02:57;;;;;;;11.32;7.68;;;22.00;85.80;;;;;;5092820;28;20027;-83
2022/07/25 03:05:23;;;;;;;9.80;6.68;;;22.10;85.70;;;;;;5093343;28;20107;-82
2022/07/25 03:07:49;;;;;;;10.38;6.55;;;22.20;85.00;;;;;;5071978;28;20035;-83
2022/07/25 03:10:15;;;;;;;9.98;7.35;;;22.30;84.60;;;;;;5090710;28;20365;-82
2022/07/25 03:12:42;;;;;;;9.50;6.78;;;22.40;84.50;;;;;;5092677;28;20047;-83
2022/07/25 03:15:09;;;;;;;10.93;6.68;;;22.40;84.10;;;;;;5080358;28;20032;-82
2022/07/25 03:17:35;;;;;;;7.97;6.80;;;22.40;84.00;;;;;;5075043;28;20067;-83
2022/07/25 03:20:01;;;;;;;7.85;7.07;;;22.50;83.80;;;;;;5074316;28;20480;-82
2022/07/25 03:22:27;;;;;;;8.80;5.85;;;22.50;84.00;;;;;;5092575;28;20027;-83
2022/07/25 03:24:52;;;;;;;9.68;6.95;;;22.50;84.00;;;;;;5092909;28;20388;-82
2022/07/25 03:27:19;;;;;;;9.63;6.85;;;22.50;83.80;;;;;;5091965;28;20131;-82
2022/07/25 03:29:45;;;;;;;11.05;7.57;;;22.50;83.80;;;;;;5092989;28;20030;-84
2022/07/25 03:32:11;;;;;;;11.02;6.63;;;22.60;83.60;;;;;;5086262;28;20104;-83
2022/07/25 03:34:36;;;;;;;9.90;7.18;;;22.60;83.50;;;;;;5100578;28;20028;-83
2022/07/25 03:37:02;;;;;;;8.98;6.63;;;22.70;83.40;;;;;;5093801;28;20020;-83
2022/07/25 03:39:28;;;;;;;10.32;7.18;;;22.80;83.10;;;;;;5079027;28;20038;-83
2022/07/25 03:41:55;;;;;;;11.90;7.35;;;22.80;83.20;;;;;;5090532;28;20095;-82
2022/07/25 03:44:22;;;;;;;11.88;8.00;;;22.90;83.10;;;;;;5084564;28;20016;-82
2022/07/25 03:46:48;;;;;;;13.85;7.53;;;23.00;82.50;;;;;;5092400;28;20366;-82
2022/07/25 03:49:13;;;;;;;10.90;6.65;;;23.10;82.20;;;;;;5074607;28;20032;-82
2022/07/25 03:51:39;;;;;;;10.23;6.90;;;23.10;81.80;;;;;;5094566;28;20028;-83
2022/07/25 03:54:05;;;;;;;14.25;7.13;;;23.10;81.90;;;;;;5098673;28;20094;-83
2022/07/25 03:56:35;;;;;;;10.85;8.07;;;23.10;81.70;;;;;;5093687;28;20068;-83
2022/07/25 03:59:00;;;;;;;9.88;7.30;;;23.10;81.60;;;;;;5064598;28;20024;-82
2022/07/25 04:01:26;;;;;;;12.05;6.75;;;23.10;81.90;;;;;;5075225;28;20454;-82
2022/07/25 04:03:52;;;;;;;8.68;7.70;;;23.20;82.30;;;;;;5091694;28;20385;-82
2022/07/25 04:06:18;;;;;;;9.45;7.05;;;23.30;81.80;;;;;;5097838;28;20464;-81
2022/07/25 04:08:44;;;;;;;11.43;7.47;;;23.30;81.80;;;;;;5083591;28;20091;-83
2022/07/25 04:11:10;;;;;;;9.05;7.07;;;23.30;81.60;;;;;;5087125;28;20058;-83
2022/07/25 04:13:36;;;;;;;9.52;7.10;;;23.40;81.50;;;;;;5093946;28;20166;-84
2022/07/25 04:16:02;;;;;;;10.60;6.70;;;23.40;81.20;;;;;;5093012;28;20034;-82
2022/07/25 04:18:28;;;;;;;8.63;6.68;;;23.50;81.30;;;;;;5093310;28;20030;-84
2022/07/25 04:20:54;;;;;;;10.35;6.72;;;23.60;80.80;;;;;;5074461;28;20035;-84
2022/07/25 04:23:21;;;;;;;10.97;7.27;;;23.60;80.80;;;;;;5081020;28;20039;-84
2022/07/25 04:25:46;;;;;;;10.68;7.05;;;23.70;80.80;;;;;;5092232;28;20480;-84
2022/07/25 04:28:12;;;;;;;10.05;6.85;;;23.80;80.30;;;;;;5092491;28;20022;-84
2022/07/25 04:30:38;;;;;;;9.10;6.95;;;23.70;79.80;;;;;;5092338;28;20103;-83
2022/07/25 04:33:04;;;;;;;9.95;7.25;;;23.70;79.90;;;;;;5092446;28;20484;-83
2022/07/25 04:35:30;;;;;;;9.50;7.95;;;23.70;80.20;;;;;;5087366;28;20012;-84
2022/07/25 04:37:55;;;;;;;8.73;7.82;;;23.60;80.40;;;;;;5070433;28;20117;-84
2022/07/25 04:40:21;;;;;;;8.68;7.80;;;23.60;80.80;;;;;;5090134;28;20135;-83
2022/07/25 04:42:47;;;;;;;7.75;7.05;;;23.60;80.90;;;;;;5091467;28;20069;-84
2022/07/25 04:45:13;;;;;;;8.07;7.25;;;23.50;81.20;;;;;;5090794;28;20020;-85
2022/07/25 04:47:39;;;;;;;10.05;7.82;;;23.60;81.40;;;;;;5066624;28;20024;-83
2022/07/25 04:50:06;;;;;;;8.25;7.40;;;23.60;81.40;;;;;;5094607;28;20485;-84
2022/07/25 04:52:32;;;;;;;10.15;7.10;;;23.60;81.50;;;;;;5098425;28;20373;-85
2022/07/25 04:54:58;;;;;;;12.35;8.07;;;23.60;81.50;;;;;;5090817;28;20055;-83
2022/07/25 04:57:24;;;;;;;10.30;7.28;;;23.70;81.30;;;;;;5092949;28;20054;-84
2022/07/25 04:59:50;;;;;;;9.73;7.15;;;23.70;81.40;;;;;;5089681;28;20060;-84
2022/07/25 05:02:16;;;;;;;10.15;7.18;;;23.90;81.30;;;;;;5084379;28;20144;-84
2022/07/25 05:04:42;;;;;;;9.97;6.60;;;24.00;81.10;;;;;;5086004;28;20028;-82
2022/07/25 05:07:08;;;;;;;11.45;6.63;;;24.30;81.10;;;;;;5090789;28;20028;-84
2022/07/25 05:09:33;;;;;;;9.63;7.13;;;25.00;78.70;;;;;;5091041;28;20565;-84
2022/07/25 05:11:59;;;;;;;7.82;7.00;;;25.80;76.40;;;;;;5078658;28;20394;-82
2022/07/25 05:14:25;;;;;;;9.52;7.22;;;26.80;73.20;;;;;;5073765;28;20107;-84
2022/07/25 05:16:51;;;;;;;6.93;6.22;;;27.40;70.20;;;;;;5078960;28;20369;-83
2022/07/25 05:19:17;;;;;;;9.35;6.82;;;28.00;68.20;;;;;;5090692;28;20020;-84
2022/07/25 05:21:42;;;;;;;8.05;7.20;;;28.80;66.10;;;;;;5090193;28;20058;-83
2022/07/25 05:24:08;;;;;;;8.50;7.28;;;29.30;63.90;;;;;;5080208;28;20024;-84
2022/07/25 05:26:35;;;;;;;7.63;6.40;;;29.80;62.70;;;;;;5080293;28;20496;-84
2022/07/25 05:29:05;;;;;;;11.05;6.38;;;30.20;61.70;;;;;;5098048;28;20071;-85
2022/07/25 05:31:31;;;;;;;8.82;6.45;;;30.50;60.10;;;;;;5098024;28;20024;-82
2022/07/25 05:33:56;;;;;;;10.68;6.97;;;30.30;59.70;;;;;;5098321;28;20150;-82
2022/07/25 05:36:22;;;;;;;9.90;7.03;;;29.80;60.50;;;;;;5093091;28;20021;-83
2022/07/25 05:38:48;;;;;;;8.88;6.70;;;29.60;60.80;;;;;;5099115;28;20020;-83
2022/07/25 05:41:15;;;;;;;13.07;7.00;;;29.30;61.80;;;;;;5102768;28;20119;-83
2022/07/25 05:43:44;;;;;;;10.27;7.45;;;29.00;62.70;;;;;;5108716;28;20099;-84
2022/07/25 05:46:10;;;;;;;8.07;7.28;;;28.80;62.70;;;;;;5069704;28;20119;-85
2022/07/25 05:48:36;;;;;;;11.02;7.22;;;28.30;63.50;;;;;;5084416;28;20017;-85
2022/07/25 05:51:02;;;;;;;8.50;7.47;;;27.90;64.70;;;;;;5098803;28;20519;-84
2022/07/25 05:53:28;;;;;;;10.85;7.45;;;27.40;66.10;;;;;;5095940;28;20032;-81
2022/07/25 05:55:54;;;;;;;10.38;7.57;;;27.20;67.10;;;;;;5093661;28;20024;-84
2022/07/25 05:58:21;;;;;;;8.80;7.80;;;27.10;66.80;;;;;;5091920;28;20019;-81
2022/07/25 06:00:50;;;;;;;8.98;7.25;;;27.10;67.30;;;;;;5098629;28;20519;-84
2022/07/25 06:03:17;;;;;;;10.15;6.53;;;28.00;66.10;;;;;;5086147;28;20017;-83
2022/07/25 06:05:45;;;;;;;7.50;6.57;;;29.60;62.40;;;;;;5098402;28;20024;-84
2022/07/25 06:08:12;;;;;;;11.10;6.50;;;30.90;59.50;;;;;;5097206;28;20046;-85
2022/07/25 06:10:38;;;;;;;;;;;31.70;57.40;;;;;;5098180;28;20020;-83
2022/07/25 06:13:04;;;;;;;10.73;5.93;;;32.40;57.60;;;;;;5098512;28;19919;-83
2022/07/25 06:15:30;;;;;;;8.67;5.83;;;32.90;53.70;;;;;;5075715;28;20047;-84
2022/07/25 06:17:55;;;;;;;8.97;6.13;;;32.60;53.80;;;;;;5092333;28;20028;-82
2022/07/25 06:20:22;;;;;;;10.53;7.00;;;33.80;52.60;;;;;;5090359;28;20144;-82
2022/07/25 06:22:48;;;;;;;7.10;5.80;;;34.70;50.40;;;;;;5098343;28;20020;-83
2022/07/25 06:25:14;;;;;;;10.07;6.07;;;34.60;49.60;;;;;;5090720;28;20038;-84
2022/07/25 06:27:40;;;;;;;11.25;6.95;;;34.00;50.40;;;;;;5096908;28;20024;-82
2022/07/25 06:30:07;;;;;;;8.68;6.40;;;34.80;50.30;;;;;;5094714;28;20035;-83
2022/07/25 06:32:33;;;;;;;9.10;5.75;;;34.80;49.60;;;;;;5082358;28;20025;-83
2022/07/25 06:34:59;;;;;;;8.30;6.28;;;35.00;48.40;;;;;;5076177;28;20595;-84
2022/07/25 06:37:25;;;;;;;6.37;5.33;;;34.50;48.40;;;;;;5086280;28;20028;-84
2022/07/25 06:39:51;;;;;;;8.35;5.75;;;34.70;48.40;;;;;;5074582;28;20031;-86
2022/07/25 06:42:16;;;;;;;9.20;5.93;;;37.40;45.50;;;;;;5088823;28;20111;-84
2022/07/25 06:44:42;;;;;;;7.68;5.55;;;37.40;45.10;;;;;;5090916;28;20028;-83
2022/07/25 06:47:11;;;;;;;9.00;6.07;;;38.20;43.40;;;;;;5094392;28;20059;-83
2022/07/25 06:49:38;;;;;;;7.78;5.75;;;38.60;43.60;;;;;;5095591;28;20032;-85
2022/07/25 06:52:05;;;;;;;8.93;6.28;;;38.90;42.10;;;;;;5082909;28;20020;-84
2022/07/25 06:54:31;;;;;;;6.70;5.55;;;40.30;41.20;;;;;;5074569;28;20035;-83
2022/07/25 06:56:57;;;;;;;7.57;5.47;;;40.50;39.80;;;;;;5095776;28;20017;-82
2022/07/25 06:59:22;;;;;;;5.95;5.20;;;40.90;39.20;;;;;;5073877;28;20028;-82
2022/07/25 07:01:48;;;;;;;7.55;4.68;;;41.20;38.30;;;;;;5094490;28;20035;-84
2022/07/25 07:04:14;;;;;;;4.95;4.45;;;41.10;37.90;;;;;;5072753;28;20032;-83
2022/07/25 07:06:41;;;;;;;5.53;5.03;;;40.70;38.20;;;;;;5091382;28;20028;-85
2022/07/25 07:09:07;;;;;;;9.55;6.28;;;40.80;38.70;;;;;;5077422;28;20146;-81
2022/07/25 07:11:36;;;;;;;8.13;5.57;;;40.80;38.60;;;;;;5092673;28;20108;-84
2022/07/25 07:14:02;;;;;;;9.55;5.72;;;40.30;39.00;;;;;;5090166;28;20044;-83
2022/07/25 07:16:29;;;;;;;7.60;5.53;;;40.80;39.20;;;;;;5090723;28;20028;-85
2022/07/25 07:18:55;;;;;;;11.30;6.22;;;40.90;38.60;;;;;;5071663;28;20099;-83
2022/07/25 07:21:21;;;;;;;;;;;40.30;39.30;;;;;;5080381;28;20486;-84
2022/07/25 07:23:47;;;;;;;9.90;6.40;;;40.50;40.60;;;;;;5080627;28;20019;-84
2022/07/25 07:26:13;;;;;;;12.35;6.15;;;40.00;39.40;;;;;;5077356;28;20063;-85
2022/07/25 07:28:39;;;;;;;13.43;7.07;;;38.50;40.80;;;;;;5081245;28;20036;-83
2022/07/25 07:31:05;;;;;;;12.53;7.50;;;36.70;42.50;;;;;;5066711;28;20024;-82
2022/07/25 07:33:32;;;;;;;8.82;6.72;;;36.20;44.50;;;;;;5082251;28;20065;-84
2022/07/25 07:35:58;;;;;;;12.20;6.65;;;36.60;44.70;;;;;;5078415;28;20070;-82
2022/07/25 07:38:25;;;;;;;9.32;7.07;;;37.30;43.20;;;;;;5087009;28;20040;-83
2022/07/25 07:40:52;;;;;;;8.98;6.65;;;37.10;42.90;;;;;;5079092;28;20020;-82
2022/07/25 07:43:18;;;;;;;9.32;6.03;;;36.60;44.10;;;;;;5078796;28;20021;-83
2022/07/25 07:45:44;;;;;;;9.60;6.90;;;37.70;43.60;;;;;;5080001;28;20540;-83
2022/07/25 07:48:11;;;;;;;13.48;6.13;;;38.30;42.10;;;;;;5083575;28;20049;-84
2022/07/25 07:50:37;;;;;;;;;;;38.50;41.50;;;;;;5093549;28;20123;-84
2022/07/25 07:53:03;;;;;;;11.23;6.60;;;37.60;42.10;;;;;;5093957;28;19911;-83
2022/07/25 07:55:44;;;;;;;7.07;6.35;;;35.90;44.00;;;;;;5082752;28;20037;-82
2022/07/25 07:58:18;;;;;;;9.73;7.07;;;34.40;46.20;;;;;;5087382;28;20026;-83
2022/07/25 08:00:45;;;;;;;9.13;7.47;;;33.00;48.10;;;;;;5085909;28;20020;-83
2022/07/25 08:03:11;;;;;;;8.80;7.47;;;31.80;50.50;;;;;;5093783;28;20024;-81
2022/07/25 08:05:40;;;;;;;7.97;7.18;;;30.80;52.40;;;;;;5094144;28;20397;-83
2022/07/25 08:08:08;;;;;;;11.10;8.13;;;30.10;54.10;;;;;;5093512;28;20054;-82
2022/07/25 08:10:37;;;;;;;10.60;8.57;;;29.70;55.30;;;;;;5092763;28;20056;-83
2022/07/25 08:13:13;;;;;;;12.88;8.18;;;29.50;56.00;;;;;;5096094;28;20040;-84
2022/07/25 08:15:39;;;;;;;9.18;7.30;;;29.30;56.30;;;;;;5092726;28;20097;-84
2022/07/25 08:18:05;;;;;;;12.88;8.77;;;30.00;56.30;;;;;;5092648;28;20428;-84
2022/07/25 08:20:31;;;;;;;11.60;6.83;;;32.30;53.10;;;;;;5092782;28;20287;-84
2022/07/25 08:22:57;;;;;;;12.07;7.07;;;34.80;48.60;;;;;;5092988;28;20784;-83
2022/07/25 08:25:23;;;;;;;10.43;6.53;;;37.20;45.20;;;;;;5092467;28;20032;-83
2022/07/25 08:27:48;;;;;;;9.35;6.13;;;39.10;43.20;;;;;;5092048;28;20108;-84
2022/07/25 08:30:16;;;;;;;10.65;5.93;;;41.00;40.30;;;;;;5079412;28;20020;-84
2022/07/25 08:32:55;;;;;;;9.38;5.47;;;41.30;38.20;;;;;;5078630;28;20036;-83
2022/07/25 08:35:21;;;;;;;12.57;7.13;;;40.00;39.30;;;;;;5092258;28;20019;-83
2022/07/25 08:37:48;;;;;;;11.18;6.03;;;38.10;40.50;;;;;;5092185;28;20020;-84
2022/07/25 08:40:16;;;;;;;9.88;6.47;;;36.40;42.50;;;;;;5092792;28;20028;-86
2022/07/25 08:42:42;;;;;;;10.38;6.22;;;34.90;44.50;;;;;;5093336;28;20028;-84
2022/07/25 08:45:11;;;;;;;12.68;7.05;;;33.80;46.10;;;;;;5093925;28;20031;-83
2022/07/25 08:47:39;;;;;;;11.27;7.45;;;32.80;47.50;;;;;;5094232;28;20024;-83
2022/07/25 08:50:12;;;;;;;9.40;8.50;;;32.10;49.40;;;;;;5093288;28;20034;-84
2022/07/25 08:52:39;;;;;;;8.93;7.40;;;31.80;50.20;;;;;;5091675;28;20024;-83
2022/07/25 08:55:09;;;;;;;13.50;7.07;;;31.30;50.80;;;;;;5092370;28;20046;-84
2022/07/25 08:57:37;;;;;;;13.88;8.40;;;;;;;;;;5093197;28;20075;-83
2022/07/25 09:00:07;;;;;;;13.40;7.22;;;;;;;;;;5093646;28;20012;-82
2022/07/25 09:02:33;;;;;;;18.83;8.60;;;30.70;51.80;;;;;;5093833;28;20024;-85
2022/07/25 09:04:58;;;;;;;8.32;7.00;;;30.20;53.50;;;;;;5091843;28;20077;-83
2022/07/25 09:07:36;;;;;;;13.80;8.18;;;30.10;54.10;;;;;;5091716;28;20081;-84
2022/07/25 09:10:25;;;;;;;12.02;7.70;;;30.20;54.30;;;;;;5071531;28;20024;-84
2022/07/25 09:12:59;;;;;;;8.10;6.68;;;;;;;;;;5081724;28;20535;-85
2022/07/25 09:15:28;;;;;;;10.98;7.38;;;30.00;54.80;;;;;;5090241;28;20012;-85
2022/07/25 09:18:14;;;;;;;10.13;9.02;;;29.70;55.30;;;;;;5082383;28;20056;-84
2022/07/25 09:20:42;;;;;;;10.30;7.97;;;29.50;55.40;;;;;;5071886;28;20020;-83
2022/07/25 09:23:10;;;;;;;12.15;6.97;;;29.40;56.10;;;;;;5091571;28;20035;-84
2022/07/25 09:25:36;;;;;;;8.52;6.38;;;29.30;55.90;;;;;;5091671;28;20412;-86
2022/07/25 09:28:16;;;;;;;7.07;6.32;;;29.20;55.90;;;;;;5092200;28;20054;-84
2022/07/25 09:30:56;;;;;;;9.40;6.95;;;29.60;55.60;;;;;;5093402;28;20039;-83
2022/07/25 09:33:23;;;;;;;10.48;7.10;;;30.70;53.60;;;;;;5073685;28;20097;-83
2022/07/25 09:35:50;;;;;;;9.05;5.78;;;31.20;52.30;;;;;;5091722;28;20042;-84
2022/07/25 09:38:17;;;;;;;8.23;5.85;;;31.20;52.40;;;;;;5090490;28;20028;-82
2022/07/25 09:41:03;;;;;;;7.57;6.55;;;30.90;52.60;;;;;;5092062;28;20024;-84
2022/07/25 09:43:41;;;;;;;12.98;8.52;;;30.20;53.30;;;;;;5091464;28;20054;-84
2022/07/25 09:46:07;;;;;;;8.65;6.47;;;30.10;54.10;;;;;;5075505;28;20443;-83
2022/07/25 09:48:34;;;;;;;8.25;6.53;;;31.30;53.70;;;;;;5091336;28;20035;-84
2022/07/25 09:51:01;;;;;;;7.63;6.22;;;33.20;51.10;;;;;;5090770;28;20115;-85
2022/07/25 09:53:28;;;;;;;7.13;6.00;;;34.90;48.90;;;;;;5091572;28;20016;-82
2022/07/25 09:55:55;;;;;;;9.15;5.80;;;37.60;45.90;;;;;;5090103;28;20119;-83
2022/07/25 09:58:22;;;;;;;11.88;6.50;;;38.40;43.50;;;;;;5092397;28;20806;-83
2022/07/25 10:00:49;;;;;;;9.50;6.10;;;39.40;41.90;;;;;;5091919;28;20489;-82
2022/07/25 10:03:30;;;;;;;8.45;7.55;;;40.30;40.60;;;;;;5091546;28;20016;-85
2022/07/25 10:06:15;;;;;;;9.57;6.47;;;40.80;40.50;;;;;;5094643;28;20028;-81
2022/07/25 10:08:41;;;;;;;8.50;7.18;;;41.00;39.00;;;;;;5075452;28;20048;-83
2022/07/25 10:11:24;;;;;;;7.68;6.13;;;40.90;38.90;;;;;;5095071;28;20564;-82
2022/07/25 10:13:51;;;;;;;8.32;6.38;;;41.30;38.80;;;;;;5094723;28;20121;-83
2022/07/25 10:16:20;;;;;;;9.80;4.75;;;41.40;38.00;;;;;;5094422;28;20023;-85
2022/07/25 10:18:50;;;;;;;5.93;5.05;;;41.50;38.60;;;;;;5094676;28;20020;-83
2022/07/25 10:21:16;;;;;;;6.68;5.03;;;41.50;37.30;;;;;;5094996;28;20484;-83
2022/07/25 10:23:42;;;;;;;6.28;5.65;;;41.60;37.40;;;;;;5092540;28;20055;-82
2022/07/25 10:26:12;;;;;;;;;;;41.30;37.40;;;;;;5094846;28;20489;-83
2022/07/25 10:28:41;;;;;;;5.43;4.72;;;41.40;37.80;;;;;;5094363;28;19930;-83
2022/07/25 10:31:20;;;;;;;6.80;4.97;;;41.30;37.30;;;;;;5076394;28;20085;-83
2022/07/25 10:33:49;;;;;;;6.72;4.47;;;41.30;37.30;;;;;;5094000;28;20028;-85
2022/07/25 10:36:15;;;;;;;6.25;5.10;;;40.30;37.60;;;;;;5094466;28;20032;-81
2022/07/25 10:38:43;;;;;;;8.98;5.97;;;38.30;39.50;;;;;;5096131;28;20107;-84
2022/07/25 10:41:15;;;;;;;6.82;5.60;;;36.30;41.80;;;;;;5093054;28;20028;-84
2022/07/25 10:43:44;;;;;;;5.47;4.80;;;34.60;44.40;;;;;;5094332;28;20020;-85
2022/07/25 10:46:17;;;;;;;8.15;5.18;;;33.50;46.50;;;;;;5093795;28;20114;-83
2022/07/25 10:48:44;;;;;;;6.75;5.93;;;32.50;47.80;;;;;;5094874;28;20103;-84
2022/07/25 10:51:12;;;;;;;;;;;31.80;49.90;;;;;;5101265;28;20020;-82
2022/07/25 10:53:44;;;;;;;8.43;6.65;;;;;;;;;;5096039;28;19911;-85
2022/07/25 10:56:15;;;;;;;9.40;6.53;;;31.10;49.50;;;;;;5094414;28;20487;-84
2022/07/25 10:58:57;;;;;;;8.43;6.85;;;30.20;54.30;;;;;;5092953;28;20322;-81
2022/07/25 11:01:25;;;;;;;10.35;6.55;;;30.00;54.30;;;;;;5094234;28;20024;-83
2022/07/25 11:03:53;;;;;;;9.23;7.05;;;29.90;54.80;;;;;;5094009;28;20028;-83
2022/07/25 11:06:39;;;;;;;8.05;7.13;;;29.80;55.00;;;;;;5093688;28;20118;-84
2022/07/25 11:09:25;;;;;;;8.23;6.80;;;29.80;54.40;;;;;;5083835;28;20534;-85
2022/07/25 11:11:54;;;;;;;7.97;7.05;;;29.70;54.70;;;;;;5093351;28;20129;-84
2022/07/25 11:14:35;;;;;;;8.00;7.20;;;29.70;55.00;;;;;;5092053;28;20036;-84
2022/07/25 11:17:18;;;;;;;10.88;7.65;;;29.70;54.30;;;;;;5094350;28;20019;-84
2022/07/25 11:20:03;;;;;;;8.80;7.00;;;29.70;54.00;;;;;;5094916;28;20027;-83
2022/07/25 11:22:31;;;;;;;8.32;6.70;;;29.60;53.90;;;;;;5093675;28;20034;-84
2022/07/25 11:24:58;;;;;;;9.50;7.25;;;29.60;54.20;;;;;;5093267;28;20026;-85
2022/07/25 11:27:26;;;;;;;;;;;29.50;54.30;;;;;;5093609;28;20143;-82
2022/07/25 11:29:52;;;;;;;8.32;6.38;;;29.50;53.70;;;;;;5092178;28;19912;-83
2022/07/25 11:32:18;;;;;;;11.35;7.03;;;29.30;54.40;;;;;;5093871;28;20406;-84
2022/07/25 11:34:51;;;;;;;12.73;6.83;;;29.30;55.90;;;;;;5093611;28;20036;-82
2022/07/25 11:37:17;;;;;;;11.60;7.63;;;29.30;55.30;;;;;;5092911;28;20284;-83
2022/07/25 11:39:45;;;;;;;9.20;6.95;;;29.20;55.90;;;;;;5093139;28;20380;-83
2022/07/25 11:42:12;;;;;;;10.25;6.93;;;29.30;55.40;;;;;;5092963;28;20036;-81
2022/07/25 11:44:37;;;;;;;10.77;6.88;;;29.20;55.20;;;;;;5093467;28;20051;-83
2022/07/25 11:47:05;;;;;;;10.77;7.53;;;29.10;55.40;;;;;;5073940;28;20040;-82
2022/07/25 11:49:31;;;;;;;10.48;7.22;;;29.00;55.60;;;;;;5094165;28;20020;-82
2022/07/25 11:51:57;;;;;;;8.15;7.32;;;29.00;55.80;;;;;;5093611;28;20024;-82
2022/07/25 11:54:23;;;;;;;8.98;6.68;;;28.90;55.60;;;;;;5092910;28;20023;-84
2022/07/25 11:56:48;;;;;;;10.68;6.90;;;28.80;55.70;;;;;;5092947;28;20028;-83
2022/07/25 11:59:15;;;;;;;14.95;7.53;;;28.70;55.90;;;;;;5093190;28;20101;-83
2022/07/25 12:01:43;;;;;;;9.48;6.68;;;28.70;56.10;;;;;;5074397;28;20519;-82
2022/07/25 12:04:18;;;;;;;8.38;6.40;;;28.60;56.20;;;;;;5073911;28;20024;-82
2022/07/25 12:06:46;;;;;;;8.52;6.20;;;28.70;56.40;;;;;;5092626;28;20059;-83
2022/07/25 12:09:18;;;;;;;12.35;6.90;;;28.80;56.00;;;;;;5092609;28;20024;-83
2022/07/25 12:11:44;;;;;;;15.00;7.55;;;28.70;55.70;;;;;;5091373;28;20028;-84
2022/07/25 12:14:11;;;;;;;9.98;6.80;;;28.50;55.70;;;;;;5089193;28;20055;-83
2022/07/25 12:16:37;;;;;;;8.48;6.88;;;28.40;55.90;;;;;;5092829;28;20032;-82
2022/07/25 12:19:08;;;;;;;7.43;6.43;;;28.40;56.30;;;;;;5093005;28;20017;-82
2022/07/25 12:21:35;;;;;;;7.60;6.80;;;28.40;56.50;;;;;;5092400;28;20388;-83
2022/07/25 12:24:01;;;;;;;7.57;6.60;;;28.40;56.30;;;;;;5092245;28;20016;-84
2022/07/25 12:26:27;;;;;;;8.93;6.63;;;28.50;55.80;;;;;;5092155;28;20066;-84
2022/07/25 12:28:53;;;;;;;9.25;6.07;;;28.60;55.70;;;;;;5091415;28;20031;-84
2022/07/25 12:31:18;;;;;;;7.90;6.25;;;28.60;55.70;;;;;;5091518;28;20175;-83
2022/07/25 12:33:44;;;;;;;6.30;5.70;;;28.60;55.70;;;;;;5092932;28;20419;-84
2022/07/25 12:36:13;;;;;;;7.30;5.35;;;28.50;55.40;;;;;;5093055;28;20023;-82
2022/07/25 12:38:39;;;;;;;7.25;6.35;;;28.40;55.30;;;;;;5092363;28;20797;-84
2022/07/25 12:41:05;;;;;;;7.28;6.03;;;28.30;55.40;;;;;;5092177;28;20023;-82
2022/07/25 12:43:31;;;;;;;6.85;5.55;;;28.20;55.80;;;;;;5092115;28;20020;-82
2022/07/25 12:45:57;;;;;;;7.80;5.63;;;28.20;56.70;;;;;;5090882;28;20510;-83